createdAt,value
2023-03-17T00:05:31.652Z,48.7
2023-03-17T00:11:24.297Z,48.6
2023-03-17T00:17:01.608Z,48.6
2023-03-17T00:22:53.697Z,48.5
2023-03-17T00:28:47.079Z,48.5
2023-03-17T00:34:24.097Z,48.4
2023-03-17T00:39:45.230Z,48.4
2023-03-17T00:45:22.501Z,48.4
2023-03-17T00:51:15.032Z,48.3
2023-03-17T00:57:07.978Z,48.3
2023-03-17T01:02:46.185Z,48.2
2023-03-17T01:08:47.317Z,48.1
2023-03-17T01:14:24.224Z,48.1
2023-03-17T01:20:01.518Z,48.1
2023-03-17T01:25:54.081Z,48
2023-03-17T01:31:46.836Z,47.9
2023-03-17T01:37:24.493Z,47.9
2023-03-17T01:42:46.740Z,47.9
2023-03-17T01:48:40.224Z,47.8
2023-03-17T01:54:32.915Z,47.8
2023-03-17T01:59:53.972Z,47.8
2023-03-17T02:05:15.661Z,47.7
2023-03-17T02:11:22.257Z,47.6
2023-03-17T02:17:14.634Z,47.6
2023-03-17T02:23:07.109Z,47.6
2023-03-17T02:28:28.992Z,47.5
2023-03-17T02:34:06.470Z,47.4
2023-03-17T02:39:44.748Z,47.4
2023-03-17T02:45:21.849Z,47.4
2023-03-17T02:50:42.399Z,46.3
2023-03-17T02:56:35.303Z,47.6
2023-03-17T03:02:13.201Z,49.1
2023-03-17T03:08:05.678Z,50.8
2023-03-17T03:13:58.800Z,52.5
2023-03-17T03:19:52.607Z,54.3
2023-03-17T03:25:44.355Z,55.9
2023-03-17T03:31:36.939Z,57.6
2023-03-17T03:37:14.731Z,59.3
2023-03-17T03:42:36.668Z,59.6
2023-03-17T03:48:42.537Z,59.6
2023-03-17T03:54:19.214Z,59.6
2023-03-17T03:59:56.455Z,59.5
2023-03-17T04:05:35.836Z,59.4
2023-03-17T04:11:27.096Z,59.4
2023-03-17T04:17:20.209Z,59.4
2023-03-17T04:23:12.914Z,59.3
2023-03-17T04:29:07.632Z,59.3
2023-03-17T04:34:46.529Z,59.3
2023-03-17T04:40:41.924Z,59.2
2023-03-17T04:46:35.429Z,59.1
2023-03-17T04:52:16.352Z,59.1
2023-03-17T04:57:55.409Z,59.1
2023-03-17T05:04:25.348Z,59
2023-03-17T05:10:07.788Z,58.9
2023-03-17T05:15:59.921Z,58.9
2023-03-17T05:21:52.614Z,58.8
2023-03-17T05:27:44.661Z,58.8
2023-03-17T05:33:38.824Z,58.8
2023-03-17T05:39:31.356Z,58.7
2023-03-17T05:45:25.674Z,58.7
2023-03-17T05:51:19.273Z,58.6
2023-03-17T06:02:50.803Z,58.5
2023-03-17T06:08:58.616Z,58.4
2023-03-17T06:14:35.663Z,58.4
2023-03-17T06:20:28.098Z,58.4
2023-03-17T06:26:30.469Z,58.3
2023-03-17T06:32:36.880Z,58.3
2023-03-17T06:38:30.138Z,58.2
2023-03-17T06:44:24.345Z,58.1
2023-03-17T06:50:17.325Z,58.1
2023-03-17T06:56:20.086Z,58.1
2023-03-17T07:02:21.380Z,58
2023-03-17T07:08:14.095Z,58
2023-03-17T07:14:06.037Z,57.9
2023-03-17T07:19:59.970Z,57.9
2023-03-17T07:25:52.347Z,57.8
2023-03-17T07:37:08.075Z,57.7
2023-03-17T07:42:45.300Z,57.7
2023-03-17T07:48:40.265Z,57.6
2023-03-17T07:54:47.949Z,57.6
2023-03-17T08:00:40.700Z,57.6
2023-03-17T08:06:50.273Z,57.5
2023-03-17T08:12:42.788Z,57.4
2023-03-17T08:18:35.906Z,57.4
2023-03-17T08:24:30.542Z,57.3
2023-03-17T08:30:26.254Z,57.3
2023-03-17T08:36:21.224Z,57.3
2023-03-17T08:42:00.005Z,57.2
2023-03-17T08:47:37.634Z,57.1
2023-03-17T08:53:30.584Z,57.1
2023-03-17T08:59:08.079Z,57.1
2023-03-17T09:05:02.508Z,57
2023-03-17T09:11:17.250Z,56.9
2023-03-17T09:17:21.896Z,56.9
2023-03-17T09:23:00.182Z,56.9
2023-03-17T09:28:53.841Z,56.8
2023-03-17T09:34:49.645Z,56.8
2023-03-17T09:40:13.280Z,56.7
2023-03-17T09:46:07.406Z,56.7
2023-03-17T09:52:00.885Z,56.6
2023-03-17T09:57:54.902Z,56.6
2023-03-17T10:03:47.623Z,56.5
2023-03-17T10:09:53.384Z,56.4
2023-03-17T10:15:46.963Z,56.4
2023-03-17T10:21:41.005Z,56.4
2023-03-17T10:27:05.186Z,56.4
2023-03-17T10:32:59.331Z,56.3
2023-03-17T10:39:03.754Z,56.3
2023-03-17T10:44:56.055Z,56.2
2023-03-17T10:50:49.754Z,56.2
2023-03-17T10:56:41.871Z,56.1
2023-03-17T11:02:36.262Z,56.1
2023-03-17T11:08:30.569Z,56
2023-03-17T11:14:22.961Z,55.9
2023-03-17T11:20:14.626Z,55.9
2023-03-17T11:25:53.116Z,55.9
2023-03-17T11:31:30.934Z,55.8
2023-03-17T11:37:23.480Z,55.8
2023-03-17T11:43:16.728Z,55.8
2023-03-17T11:49:09.437Z,55.7
2023-03-17T11:55:02.269Z,55.6
2023-03-17T12:00:55.210Z,55.6
2023-03-17T12:06:48.908Z,55.6
2023-03-17T12:12:40.839Z,55.5
2023-03-17T12:18:36.122Z,55.4
2023-03-17T12:24:29.366Z,55.4
2023-03-17T12:30:06.485Z,55.4
2023-03-17T12:36:03.218Z,55.3
2023-03-17T12:41:56.599Z,55.3
2023-03-17T12:47:50.708Z,55.3
2023-03-17T12:53:43.822Z,55.2
2023-03-17T12:59:36.554Z,55.4
2023-03-17T13:05:33.745Z,55.4
2023-03-17T13:11:27.709Z,55.4
2023-03-17T13:17:05.603Z,55.4
2023-03-17T13:23:00.080Z,55.4
2023-03-17T13:28:58.094Z,55.4
2023-03-17T13:34:51.472Z,55.3
2023-03-17T13:41:00.522Z,55.3
2023-03-17T13:47:08.511Z,55.3
2023-03-17T13:53:07.441Z,55.2
2023-03-17T13:59:01.232Z,55.2
2023-03-17T14:04:55.107Z,55.1
2023-03-17T14:10:48.353Z,55.1
2023-03-17T14:16:50.840Z,55.1
2023-03-17T14:22:32.499Z,55
2023-03-17T14:28:27.893Z,55
2023-03-17T14:34:21.757Z,54.9
2023-03-17T14:39:59.387Z,54.9
2023-03-17T14:45:52.280Z,54.9
2023-03-17T14:51:45.102Z,54.8
2023-03-17T14:57:38.403Z,54.8
2023-03-17T15:03:32.747Z,54.8
2023-03-17T15:09:28.404Z,54.7
2023-03-17T15:15:21.723Z,54.6
2023-03-17T15:21:14.968Z,54.6
2023-03-17T15:27:08.538Z,54.6
2023-03-17T15:33:08.804Z,54.5
2023-03-17T15:39:08.257Z,54.5
2023-03-17T15:45:01.467Z,54.4
2023-03-17T15:50:54.301Z,54.4
2023-03-17T15:56:48.298Z,54.4
2023-03-17T16:02:42.396Z,54.3
2023-03-17T16:08:34.863Z,54.3
2023-03-17T16:14:30.872Z,54.3
2023-03-17T16:20:36.480Z,54.2
2023-03-17T16:26:40.653Z,54.1
2023-03-17T16:32:17.529Z,54.1
2023-03-17T16:38:09.488Z,54.1
2023-03-17T16:44:14.063Z,54.1
2023-03-17T16:50:07.466Z,54
2023-03-17T16:55:44.278Z,53.9
2023-03-17T17:01:38.905Z,53.9
2023-03-17T17:07:01.265Z,53.9
2023-03-17T17:12:37.834Z,53.8
2023-03-17T17:18:15.046Z,53.8
2023-03-17T17:23:53.104Z,53.8
2023-03-17T17:29:15.345Z,53.7
2023-03-17T17:34:53.890Z,53.7
2023-03-17T17:40:46.997Z,53.6
2023-03-17T17:46:40.554Z,53.6
2023-03-17T17:52:19.919Z,53.6
2023-03-17T17:58:12.511Z,53.5
2023-03-17T18:03:49.089Z,53.6
2023-03-17T18:09:11.257Z,54.2
2023-03-17T18:14:49.088Z,54.6
2023-03-17T18:20:25.646Z,54.8
2023-03-17T18:26:18.717Z,54.9
2023-03-17T18:32:12.623Z,54.9
2023-03-17T18:37:34.844Z,54.9
2023-03-17T18:43:41.688Z,54.9
2023-03-17T18:49:03.829Z,54.9
2023-03-17T18:54:40.480Z,54.9
2023-03-17T19:00:34.974Z,54.9
2023-03-17T19:06:28.251Z,54.8
2023-03-17T19:11:50.149Z,54.8
2023-03-17T19:17:42.639Z,54.8
2023-03-17T19:23:33.850Z,54.8
2023-03-17T19:29:11.022Z,54.8
2023-03-17T19:34:49.704Z,54.7
2023-03-17T19:40:28.508Z,54.7
2023-03-17T19:46:00.823Z,54.6
2023-03-17T19:51:39.236Z,54.6
2023-03-17T19:56:45.012Z,54.6
2023-03-17T20:02:38.037Z,54.5
2023-03-17T20:08:31.540Z,54.5
2023-03-17T20:14:24.361Z,54.4
2023-03-17T20:19:48.404Z,54.4
2023-03-17T20:24:54.820Z,54.4
2023-03-17T20:30:32.986Z,54.3
2023-03-17T20:36:12.748Z,54.3
2023-03-17T20:42:05.843Z,54.3
2023-03-17T20:47:58.046Z,54.3
2023-03-17T20:53:53.636Z,54.2
2023-03-17T20:59:46.808Z,54.2
2023-03-17T21:05:40.202Z,54.1
2023-03-17T21:11:32.623Z,54.1
2023-03-17T21:17:11.350Z,54.1
2023-03-17T21:23:07.082Z,54
2023-03-17T21:28:44.676Z,53.9
2023-03-17T21:34:06.124Z,53.9
2023-03-17T21:40:02.401Z,53.9
2023-03-17T21:45:54.788Z,53.9
2023-03-17T21:51:48.243Z,53.8
2023-03-17T21:57:42.026Z,53.8
2023-03-17T22:03:27.181Z,53.6
2023-03-17T22:08:49.993Z,53.5
2023-03-17T22:14:12.630Z,53.4
2023-03-17T22:19:53.633Z,53.4
2023-03-17T22:25:31.151Z,53.3
2023-03-17T22:31:24.425Z,53.3
2023-03-17T22:37:18.344Z,53.2
2023-03-17T22:42:57.408Z,53.2
2023-03-17T22:48:52.901Z,53.1
2023-03-17T22:54:15.197Z,53.1
2023-03-17T23:00:07.406Z,53
2023-03-17T23:05:59.774Z,53
2023-03-17T23:11:47.623Z,52.9
2023-03-17T23:17:40.224Z,52.9
2023-03-17T23:23:33.306Z,52.8
2023-03-17T23:29:26.412Z,52.8
2023-03-17T23:35:04.649Z,52.8
2023-03-17T23:40:42.703Z,52.7
2023-03-17T23:46:35.963Z,52.6
2023-03-17T23:52:13.799Z,52.6
2023-03-17T23:57:50.826Z,52.6
